Time;durP1;ratioP1;P1;durP2;ratioP2;P2;SDS_P1;SDS_P2;PMS_P1;PMS_P2;Temp;Humidity;BMP_temperature;BMP_pressure;BME280_temperature;BME280_humidity;BME280_pressure;Samples;Min_cycle;Max_cycle;Signal;HPM_P1;HPM_P2
2021/11/28 00:00:32;;;;;;;101.88;37.17;;;;;;;7.42;84.60;98523.69;4886129;29;20103;-48
2021/11/28 00:02:57;;;;;;;;;;;;;;;7.28;86.00;98529.28;4885702;29;20049;-49
2021/11/28 00:05:25;;;;;;;93.43;35.97;;;;;;;7.13;84.97;98530.34;4883858;29;19927;-48
2021/11/28 00:13:22;;;;;;;109.30;38.60;;;;;;;7.53;85.25;98542.56;4888072;29;20064;-47
2021/11/28 00:15:48;;;;;;;99.40;36.72;;;;;;;7.43;84.06;98543.84;4885699;29;20044;-47
2021/11/28 00:18:13;;;;;;;92.15;35.47;;;;;;;7.13;86.11;98540.13;4884865;29;20071;-47
2021/11/28 00:20:39;;;;;;;90.63;35.00;;;;;;;7.04;86.69;98547.47;4883871;29;20029;-51
2021/11/28 00:23:04;;;;;;;94.25;35.88;;;;;;;7.09;86.00;98557.44;4885813;29;20029;-47
2021/11/28 00:25:30;;;;;;;88.20;36.13;;;;;;;6.76;84.87;98524.81;4885094;29;20020;-48
2021/11/28 00:27:55;;;;;;;101.35;38.53;;;;;;;7.05;86.78;98564.97;4884825;29;20025;-48
2021/11/28 00:30:23;;;;;;;103.85;39.50;;;;;;;8.11;84.46;98568.88;4883855;29;20032;-50
2021/11/28 00:32:49;;;;;;;96.47;37.95;;;;;;;7.62;83.45;98573.06;4883993;29;20049;-51
2021/11/28 00:35:15;;;;;;;93.75;37.70;;;;;;;7.48;83.66;98574.16;4884873;29;20115;-48
2021/11/28 00:37:40;;;;;;;93.47;37.67;;;;;;;7.19;83.72;98579.78;4884044;29;20065;-49
2021/11/28 00:40:06;;;;;;;92.07;35.35;;;;;;;7.02;85.19;98578.63;4887635;29;20021;-51
2021/11/28 00:42:32;;;;;;;94.03;36.88;;;;;;;6.98;86.27;98569.47;4888481;29;20084;-49
2021/11/28 00:44:57;;;;;;;100.15;38.97;;;;;;;7.42;85.36;98563.41;4888586;29;20092;-49
2021/11/28 00:47:23;;;;;;;95.25;37.35;;;;;;;7.63;84.75;98546.38;4890001;29;20036;-49
2021/11/28 00:50:24;;;;;;;92.15;37.58;;;;;;;7.56;84.25;98520.97;4889806;29;20382;-50
2021/11/28 00:52:38;;;;;;;89.82;36.38;;;;;;;7.49;84.65;98499.03;4888283;29;20035;-50
2021/11/28 00:55:04;;;;;;;97.38;37.85;;;;;;;7.53;84.09;98501.00;4889669;29;20040;-49
2021/11/28 00:57:30;;;;;;;94.50;38.05;;;;;;;7.23;86.28;98500.78;4887651;29;20072;-48
2021/11/28 00:59:56;;;;;;;89.70;38.33;;;;;;;7.32;86.11;98504.00;4888539;29;20139;-49
2021/11/28 01:02:22;;;;;;;86.30;37.35;;;;;;;7.34;85.50;98488.72;4894666;29;20033;-51
2021/11/28 01:04:47;;;;;;;92.28;37.55;;;;;;;7.19;86.36;98481.88;4898051;29;20036;-50
2021/11/28 01:07:13;;;;;;;95.20;37.88;;;;;;;7.17;85.98;98485.75;4898236;29;20381;-52
2021/11/28 01:09:38;;;;;;;96.25;38.45;;;;;;;7.20;86.63;98480.06;4897895;29;20033;-51
2021/11/28 01:12:04;;;;;;;94.97;38.35;;;;;;;7.11;87.50;98483.97;4897628;29;20458;-49
2021/11/28 01:14:30;;;;;;;97.50;39.00;;;;;;;7.30;86.12;98482.22;4897752;29;20028;-51
2021/11/28 01:16:55;;;;;;;89.65;37.88;;;;;;;7.22;86.08;98478.00;4882386;29;20040;-49
2021/11/28 01:19:21;;;;;;;87.97;36.08;;;;;;;7.27;85.50;98480.81;4895745;29;20417;-49
2021/11/28 01:21:50;;;;;;;81.78;36.15;;;;;;;7.38;84.79;98482.78;4897525;29;20028;-48
2021/11/28 01:24:15;;;;;;;89.72;36.40;;;;;;;7.12;84.88;98477.63;4897911;29;20129;-49
2021/11/28 01:26:41;;;;;;;88.78;38.17;;;;;;;7.13;84.30;98468.69;4897567;29;20033;-49
2021/11/28 01:29:06;;;;;;;90.28;37.22;;;;;;;6.98;86.06;98471.63;4897870;29;20044;-48
2021/11/28 01:31:32;;;;;;;96.60;38.60;;;;;;;7.63;84.90;98476.72;4897647;29;20060;-51
2021/11/28 01:33:57;;;;;;;100.80;37.72;;;;;;;7.66;84.39;98473.63;4897786;29;20403;-49
2021/11/28 01:36:23;;;;;;;82.88;35.58;;;;;;;7.34;85.12;98462.25;4897334;29;20051;-48
2021/11/28 01:38:48;;;;;;;95.13;37.05;;;;;;;7.17;85.41;98468.03;4897458;29;20504;-48
2021/11/28 01:41:14;;;;;;;89.18;36.42;;;;;;;7.03;85.85;98456.72;4897328;29;20056;-49
2021/11/28 01:43:39;;;;;;;88.97;35.28;;;;;;;7.04;86.36;98449.59;4897674;29;20381;-48
2021/11/28 01:46:05;;;;;;;89.95;35.80;;;;;;;6.96;86.30;98452.50;4897391;29;20029;-47
2021/11/28 01:48:30;;;;;;;101.32;38.38;;;;;;;7.90;84.72;98450.84;4896088;29;20043;-48
2021/11/28 01:50:56;;;;;;;97.63;36.53;;;;;;;7.64;83.66;98443.91;4897196;29;20028;-49
2021/11/28 01:53:23;;;;;;;98.43;39.05;;;;;;;7.42;83.85;98428.41;4897349;29;20032;-49
2021/11/28 01:55:49;;;;;;;88.07;37.97;;;;;;;7.37;84.37;98453.91;4896507;29;20046;-49
2021/11/28 01:58:15;;;;;;;90.50;37.05;;;;;;;7.13;84.64;98456.28;4897176;29;20029;-48
2021/11/28 02:00:50;;;;;;;100.93;36.67;;;;;;;7.05;85.54;98438.00;4897189;29;20426;-49
2021/11/28 02:03:16;;;;;;;101.72;39.05;;;;;;;7.43;85.97;98440.59;4896981;29;20112;-48
2021/11/28 02:05:43;;;;;;;103.68;39.33;;;;;;;8.03;84.92;98455.19;4896906;29;20073;-48
2021/11/28 02:08:08;;;;;;;90.28;39.13;;;;;;;7.81;82.38;98454.78;4897179;29;20039;-47
2021/11/28 02:10:34;;;;;;;85.38;35.08;;;;;;;7.39;83.32;98444.72;4897016;29;20025;-47
2021/11/28 02:12:59;;;;;;;84.43;35.95;;;;;;;7.30;83.05;98446.00;4896970;29;20327;-47
2021/11/28 02:15:25;;;;;;;88.63;38.55;;;;;;;7.14;84.30;98449.13;4896966;29;20028;-49
2021/11/28 02:17:52;;;;;;;95.78;39.05;;;;;;;7.41;84.23;98455.91;4897081;29;20056;-48
2021/11/28 02:20:19;;;;;;;96.13;39.08;;;;;;;7.67;83.74;98432.88;4896935;29;20060;-47
2021/11/28 02:22:44;;;;;;;84.93;34.85;;;;;;;7.35;83.52;98445.34;4896489;29;20029;-50
2021/11/28 02:25:10;;;;;;;83.95;35.80;;;;;;;7.12;85.09;98444.09;4896642;29;20512;-47
2021/11/28 02:27:35;;;;;;;88.35;35.03;;;;;;;6.98;84.40;98453.91;4896688;29;20036;-47
2021/11/28 02:30:01;;;;;;;80.90;35.47;;;;;;;6.96;84.08;98448.00;4897037;29;20457;-49
2021/11/28 02:32:26;;;;;;;85.95;36.22;;;;;;;6.87;86.17;98473.06;4896662;29;20063;-47
2021/11/28 02:34:52;;;;;;;88.13;36.80;;;;;;;7.50;85.33;98461.75;4896864;29;20135;-48
2021/11/28 02:37:17;;;;;;;90.35;35.10;;;;;;;7.59;84.45;98449.84;4879734;29;20052;-48
2021/11/28 02:39:43;;;;;;;83.40;35.33;;;;;;;7.15;84.70;98448.13;4896437;29;20480;-48
2021/11/28 02:42:08;;;;;;;85.80;35.60;;;;;;;7.19;83.65;98446.66;4896205;29;20028;-48
2021/11/28 02:44:34;;;;;;;86.88;36.88;;;;;;;7.17;84.80;98454.81;4896379;29;20032;-47
2021/11/28 02:47:00;;;;;;;85.53;36.10;;;;;;;6.85;86.67;98433.66;4896210;29;20032;-48
2021/11/28 02:49:25;;;;;;;94.25;38.63;;;;;;;7.93;82.78;98446.94;4896544;29;20028;-48
2021/11/28 02:51:51;;;;;;;86.45;36.85;;;;;;;7.41;84.19;98455.09;4896176;29;20385;-48
2021/11/28 02:54:17;;;;;;;83.03;35.20;;;;;;;7.18;85.48;98459.09;4895930;29;20029;-48
2021/11/28 02:56:42;;;;;;;87.22;35.88;;;;;;;7.09;84.61;98455.06;4896123;29;20381;-48
2021/11/28 02:59:08;;;;;;;92.78;36.17;;;;;;;7.10;83.89;98453.22;4895866;29;20111;-48
2021/11/28 03:01:33;;;;;;;87.28;35.50;;;;;;;7.12;85.34;98452.00;4895931;29;20036;-48
2021/11/28 03:03:59;;;;;;;91.65;37.05;;;;;;;7.37;85.01;98460.00;4895361;29;20050;-48
2021/11/28 03:06:24;;;;;;;95.68;38.78;;;;;;;7.84;83.82;98459.63;4895825;29;20382;-49
2021/11/28 03:08:50;;;;;;;86.63;34.75;;;;;;;7.44;83.38;98454.66;4895618;29;20091;-48
2021/11/28 03:11:15;;;;;;;94.03;37.95;;;;;;;7.60;83.40;98446.19;4895731;29;20043;-49
2021/11/28 03:13:46;;;;;;;84.47;36.90;;;;;;;7.24;83.61;98426.47;4895799;29;20060;-48
2021/11/28 03:16:13;;;;;;;95.30;36.65;;;;;;;7.07;84.59;98432.50;4895771;29;20502;-49
2021/11/28 03:18:39;;;;;;;94.95;37.13;;;;;;;7.69;84.16;98449.38;4895926;29;20446;-49
2021/11/28 03:21:12;;;;;;;83.38;35.15;;;;;;;7.57;84.04;98448.44;4895792;29;20506;-48
2021/11/28 03:23:38;;;;;;;89.20;36.13;;;;;;;7.69;81.64;98454.69;4895759;29;20072;-48
2021/11/28 03:26:17;;;;;;;90.38;37.30;;;;;;;7.44;83.48;98436.94;4878663;29;20139;-50
2021/11/28 03:28:48;;;;;;;92.15;36.53;;;;;;;7.23;82.66;98402.88;4895224;29;20040;-49
2021/11/28 03:31:13;;;;;;;89.85;36.47;;;;;;;6.78;85.58;98381.81;4895319;29;20032;-48
2021/11/28 03:33:39;;;;;;;91.82;37.70;;;;;;;6.90;86.70;98374.81;4895180;29;20056;-51
2021/11/28 03:36:05;;;;;;;101.18;38.38;;;;;;;7.76;84.17;98389.22;4895499;29;20029;-48
2021/11/28 03:38:31;;;;;;;86.20;36.78;;;;;;;7.41;83.63;98395.00;4895422;29;20473;-49
2021/11/28 03:40:56;;;;;;;84.88;34.75;;;;;;;6.85;84.30;98401.91;4895327;29;20058;-51
2021/11/28 03:43:22;;;;;;;93.47;36.00;;;;;;;6.82;85.28;98402.31;4895414;29;20107;-48
2021/11/28 03:45:47;;;;;;;86.18;35.15;;;;;;;6.62;85.61;98415.63;4895054;29;20462;-47
2021/11/28 03:48:13;;;;;;;94.55;37.50;;;;;;;7.14;85.00;98417.38;4895080;29;20039;-50
2021/11/28 03:50:38;;;;;;;90.43;36.25;;;;;;;7.42;84.10;98417.81;4895193;29;20627;-48
2021/11/28 03:53:04;;;;;;;90.30;37.42;;;;;;;7.18;84.10;98411.47;4895162;29;20028;-49
2021/11/28 03:55:29;;;;;;;92.22;37.35;;;;;;;6.87;84.41;98414.09;4895214;29;20032;-49
2021/11/28 03:57:55;;;;;;;89.75;35.50;;;;;;;6.70;85.40;98424.34;4894781;29;20382;-47
2021/11/28 04:00:21;;;;;;;95.07;36.65;;;;;;;6.45;85.21;98428.53;4894900;29;20080;-51
2021/11/28 04:02:46;;;;;;;88.25;36.80;;;;;;;6.27;85.63;98407.22;4894759;29;20481;-48
2021/11/28 04:05:12;;;;;;;97.35;38.25;;;;;;;6.48;86.98;98407.97;4894954;29;20051;-49
2021/11/28 04:07:37;;;;;;;87.50;36.38;;;;;;;6.94;85.93;98399.81;4895067;29;20378;-48
2021/11/28 04:10:05;;;;;;;88.38;35.88;;;;;;;6.61;85.41;98402.63;4877952;29;20409;-47
2021/11/28 04:12:30;;;;;;;88.25;37.15;;;;;;;6.52;85.33;98391.47;4893516;29;20036;-49
2021/11/28 04:14:57;;;;;;;86.90;35.33;;;;;;;6.30;86.25;98398.88;4893996;29;20025;-48
2021/11/28 04:17:24;;;;;;;92.78;37.72;;;;;;;6.53;86.99;98397.56;4894818;29;20036;-48
2021/11/28 04:19:50;;;;;;;99.93;38.58;;;;;;;7.02;85.94;98410.13;4894746;29;20568;-47
2021/11/28 04:22:16;;;;;;;89.47;37.22;;;;;;;6.67;84.04;98435.34;4894551;29;20466;-47
2021/11/28 04:24:41;;;;;;;87.43;36.88;;;;;;;6.43;84.27;98456.97;4894515;29;20043;-47
2021/11/28 04:27:07;;;;;;;91.28;36.17;;;;;;;6.21;86.04;98451.13;4894660;29;20029;-50
2021/11/28 04:29:32;;;;;;;87.18;36.83;;;;;;;6.22;86.59;98468.59;4894794;29;20112;-48
2021/11/28 04:31:58;;;;;;;87.65;37.05;;;;;;;6.20;86.62;98475.91;4894707;29;20369;-48
2021/11/28 04:34:23;;;;;;;91.03;35.88;;;;;;;6.05;86.21;98483.25;4894224;29;20116;-47
2021/11/28 04:36:49;;;;;;;85.93;35.90;;;;;;;6.02;86.97;98507.47;4894390;29;20861;-47
2021/11/28 04:39:15;;;;;;;96.93;37.70;;;;;;;7.02;83.67;98515.94;4894778;29;20033;-47
2021/11/28 04:41:40;;;;;;;87.90;36.17;;;;;;;6.49;83.45;98510.03;4894582;29;20029;-49
2021/11/28 04:44:06;;;;;;;85.93;35.78;;;;;;;6.18;85.36;98511.50;4894613;29;20033;-47
2021/11/28 04:46:31;;;;;;;90.50;37.25;;;;;;;5.96;86.57;98526.72;4894301;29;20029;-48
2021/11/28 04:48:57;;;;;;;90.55;37.22;;;;;;;5.84;86.29;98539.69;4894711;29;20186;-50
2021/11/28 04:51:22;;;;;;;92.35;38.33;;;;;;;5.75;86.28;98547.03;4894869;29;20327;-48
2021/11/28 04:53:48;;;;;;;96.20;40.10;;;;;;;5.81;88.83;98554.13;4894569;29;20029;-49
2021/11/28 04:56:13;;;;;;;111.60;42.22;;;;;;;6.76;85.34;98576.84;4894599;29;20068;-47
2021/11/28 04:58:39;;;;;;;98.75;39.58;;;;;;;6.42;84.63;98581.41;4894398;29;20048;-49
2021/11/28 05:01:04;;;;;;;89.40;38.58;;;;;;;6.12;85.17;98573.06;4894719;29;20029;-49
2021/11/28 05:03:30;;;;;;;96.70;39.10;;;;;;;6.04;85.92;98574.09;4894408;29;20091;-50
2021/11/28 05:05:55;;;;;;;85.68;36.60;;;;;;;5.91;87.22;98566.94;4894300;29;20105;-48
2021/11/28 05:08:21;;;;;;;104.13;39.95;;;;;;;6.59;86.80;98563.28;4894546;29;20036;-49
2021/11/28 05:10:46;;;;;;;88.22;38.30;;;;;;;6.67;85.42;98555.13;4894407;29;20044;-50
2021/11/28 05:13:11;;;;;;;82.25;36.05;;;;;;;6.41;86.25;98554.13;4894516;29;20036;-48
2021/11/28 05:15:37;;;;;;;86.20;37.03;;;;;;;6.28;86.57;98550.72;4894728;29;20033;-50
2021/11/28 05:18:02;;;;;;;88.60;36.22;;;;;;;6.16;86.38;98539.94;4894469;29;20066;-48
2021/11/28 05:20:28;;;;;;;82.85;35.75;;;;;;;6.12;85.92;98542.19;4894796;29;20028;-49
2021/11/28 05:22:53;;;;;;;73.90;34.92;;;;;;;6.04;86.34;98543.19;4894402;29;20554;-48
2021/11/28 05:25:19;;;;;;;85.18;36.90;;;;;;;6.71;85.19;98539.66;4894871;29;20033;-49
2021/11/28 05:27:47;;;;;;;85.35;36.80;;;;;;;6.74;84.97;98542.72;4897912;29;20036;-49
2021/11/28 05:30:12;;;;;;;85.57;35.38;;;;;;;6.73;83.79;98541.06;4897776;29;20028;-48
2021/11/28 05:32:38;;;;;;;75.70;33.65;;;;;;;6.09;84.26;98521.44;4880765;29;20152;-48
2021/11/28 05:35:04;;;;;;;83.13;35.42;;;;;;;5.73;87.26;98522.66;4898035;29;20470;-50
2021/11/28 05:37:29;;;;;;;86.72;35.88;;;;;;;5.99;88.59;98535.06;4897472;29;20287;-48
2021/11/28 05:39:54;;;;;;;88.40;38.65;;;;;;;6.75;86.80;98525.00;4897659;29;20032;-50
2021/11/28 05:42:20;;;;;;;75.38;34.33;;;;;;;6.52;86.60;98518.34;4897540;29;20563;-49
2021/11/28 05:44:46;;;;;;;77.40;33.95;;;;;;;6.33;87.09;98527.13;4897410;29;20032;-50
2021/11/28 05:47:11;;;;;;;67.03;31.67;;;;;;;6.24;87.33;98535.28;4897032;29;20029;-48
2021/11/28 05:49:37;;;;;;;69.85;32.30;;;;;;;6.48;86.44;98554.16;4897801;29;20035;-51
2021/11/28 05:52:03;;;;;;;69.93;32.85;;;;;;;6.40;85.92;98535.88;4897529;29;20032;-51
2021/11/28 05:54:28;;;;;;;69.28;32.03;;;;;;;6.51;86.73;98545.81;4896804;29;20441;-47
2021/11/28 05:56:53;;;;;;;72.65;34.20;;;;;;;6.76;87.73;98551.25;4896757;29;20033;-47
2021/11/28 05:59:19;;;;;;;77.18;33.50;;;;;;;7.64;86.58;98533.94;4896842;29;20037;-49
2021/11/28 06:01:44;;;;;;;64.90;31.38;;;;;;;7.42;82.23;98520.22;4896651;29;20501;-48
2021/11/28 06:04:10;;;;;;;65.15;32.70;;;;;;;7.18;82.56;98530.53;4896623;29;20028;-47
2021/11/28 06:06:35;;;;;;;59.65;30.08;;;;;;;7.09;82.81;98521.22;4896694;29;20028;-48
2021/11/28 06:09:01;;;;;;;65.03;31.23;;;;;;;7.11;83.43;98531.59;4896672;29;20040;-48
2021/11/28 06:11:26;;;;;;;62.70;30.90;;;;;;;7.32;83.36;98547.16;4896501;29;20474;-47
2021/11/28 06:13:52;;;;;;;71.53;34.78;;;;;;;8.03;82.62;98555.88;4879654;29;20033;-47
2021/11/28 06:16:17;;;;;;;61.35;32.15;;;;;;;8.79;77.35;98553.97;4896388;29;20073;-49
2021/11/28 06:18:43;;;;;;;65.60;32.88;;;;;;;8.37;79.17;98541.31;4896530;29;20036;-49
2021/11/28 06:21:08;;;;;;;63.83;33.40;;;;;;;8.12;80.58;98559.06;4890106;29;20052;-48
2021/11/28 06:23:34;;;;;;;70.53;33.50;;;;;;;8.19;80.57;98575.75;4893564;29;20164;-48
2021/11/28 06:25:59;;;;;;;60.53;31.40;;;;;;;8.31;78.77;98565.22;4896292;29;20037;-50
2021/11/28 06:28:25;;;;;;;61.00;30.17;;;;;;;8.22;78.37;98581.41;4896398;29;20037;-50
2021/11/28 06:30:50;;;;;;;60.08;30.83;;;;;;;8.05;79.77;98587.44;4896124;29;20036;-50
2021/11/28 06:33:16;;;;;;;65.50;31.70;;;;;;;8.19;78.96;98603.03;4896055;29;20447;-48
2021/11/28 06:35:41;;;;;;;60.90;31.30;;;;;;;8.11;79.04;98613.09;4896103;29;20088;-49
2021/11/28 06:38:07;;;;;;;62.10;31.30;;;;;;;8.11;80.19;98603.31;4895225;29;20033;-49
2021/11/28 06:40:32;;;;;;;69.10;32.20;;;;;;;8.55;85.62;98598.09;4895918;29;20116;-47
2021/11/28 06:42:58;;;;;;;63.90;32.45;;;;;;;8.58;79.56;98598.44;4895834;29;20065;-48
2021/11/28 06:45:23;;;;;;;58.75;30.70;;;;;;;8.60;78.69;98611.50;4895517;29;20029;-48
2021/11/28 06:47:49;;;;;;;62.70;31.05;;;;;;;8.41;78.88;98608.81;4895585;29;20095;-50
2021/11/28 06:50:14;;;;;;;57.28;29.85;;;;;;;8.57;78.74;98618.06;4895056;29;20127;-47
2021/11/28 06:52:40;;;;;;;61.45;30.45;;;;;;;8.64;77.75;98610.03;4890928;29;20572;-50
2021/11/28 06:55:06;;;;;;;61.70;31.92;;;;;;;8.76;76.90;98615.44;4895927;29;20032;-49
2021/11/28 06:57:31;;;;;;;65.18;30.98;;;;;;;8.78;77.02;98624.81;4894724;29;20024;-49
2021/11/28 06:59:57;;;;;;;65.05;30.52;;;;;;;9.22;74.35;98629.25;4896023;29;20390;-50
2021/11/28 07:02:22;;;;;;;62.97;31.60;;;;;;;10.37;69.65;98623.00;4896078;29;20033;-50
2021/11/28 07:04:47;;;;;;;60.83;31.25;;;;;;;9.95;70.26;98623.81;4896181;29;20029;-48
2021/11/28 07:07:13;;;;;;;58.72;30.25;;;;;;;9.61;71.22;98635.13;4895914;29;20652;-48
2021/11/28 07:09:38;;;;;;;59.33;29.25;;;;;;;9.73;71.22;98628.03;4895604;29;20120;-46
2021/11/28 07:12:04;;;;;;;64.20;30.55;;;;;;;10.13;70.77;98624.78;4896131;29;20032;-50
2021/11/28 07:14:30;;;;;;;57.78;29.73;;;;;;;10.13;69.99;98612.31;4895641;29;20520;-48
2021/11/28 07:16:55;;;;;;;61.78;30.98;;;;;;;10.30;69.44;98632.91;4895730;29;20048;-48
2021/11/28 07:19:21;;;;;;;62.55;29.45;;;;;;;10.01;69.60;98624.75;4895751;29;20044;-48
2021/11/28 07:21:46;;;;;;;56.72;28.80;;;;;;;10.17;69.80;98613.47;4895686;29;20502;-49
2021/11/28 07:24:12;;;;;;;54.97;30.52;;;;;;;9.78;71.81;98615.66;4895729;29;20067;-48
2021/11/28 07:26:37;;;;;;;59.40;30.65;;;;;;;9.35;72.09;98611.31;4895694;29;20084;-49
2021/11/28 07:29:03;;;;;;;61.65;31.33;;;;;;;9.46;74.65;98606.28;4895378;29;20028;-48
2021/11/28 07:31:28;;;;;;;63.35;30.55;;;;;;;9.58;72.45;98612.47;4895344;29;20456;-50
2021/11/28 07:33:54;;;;;;;66.25;30.45;;;;;;;9.83;70.53;98608.88;4894921;29;20125;-51
2021/11/28 07:36:19;;;;;;;57.13;29.65;;;;;;;9.64;71.00;98616.88;4895239;29;20115;-49
2021/11/28 07:38:45;;;;;;;57.10;30.80;;;;;;;9.69;70.61;98605.56;4895127;29;20028;-46
2021/11/28 07:41:11;;;;;;;56.08;30.85;;;;;;;9.74;69.95;98614.50;4895341;29;20097;-50
2021/11/28 07:43:36;;;;;;;55.85;28.92;;;;;;;9.52;70.99;98600.91;4895684;29;20032;-47
2021/11/28 07:46:02;;;;;;;61.47;31.42;;;;;;;9.67;71.42;98607.66;4895135;29;20029;-47
2021/11/28 07:48:28;;;;;;;61.92;30.75;;;;;;;9.97;70.78;98620.91;4895363;29;20517;-47
2021/11/28 07:50:53;;;;;;;64.80;34.65;;;;;;;9.77;70.37;98627.34;4895358;29;20048;-47
2021/11/28 07:53:19;;;;;;;68.35;34.05;;;;;;;9.81;71.25;98618.91;4895394;29;20477;-49
2021/11/28 07:55:44;;;;;;;63.53;31.20;;;;;;;9.73;71.44;98657.25;4895243;29;20021;-50
2021/11/28 07:58:10;;;;;;;59.00;31.05;;;;;;;10.16;70.24;98665.00;4895062;29;20056;-48
2021/11/28 08:00:35;;;;;;;62.08;31.75;;;;;;;10.21;70.77;98647.59;4891756;29;20082;-48
2021/11/28 08:03:01;;;;;;;61.53;31.98;;;;;;;10.21;70.26;98640.41;4886633;29;20040;-48
2021/11/28 08:05:27;;;;;;;61.72;32.97;;;;;;;10.26;70.74;98640.53;4887492;29;20025;-48
2021/11/28 08:07:54;;;;;;;62.50;32.38;;;;;;;10.35;70.70;98647.16;4884541;29;20029;-48
2021/11/28 08:10:19;;;;;;;65.97;34.65;;;;;;;10.15;70.02;98634.16;4888247;29;20029;-50
2021/11/28 08:12:45;;;;;;;59.17;31.60;;;;;;;10.37;70.92;98661.03;4886800;29;20036;-47
2021/11/28 08:15:15;;;;;;;58.28;30.88;;;;;;;10.66;69.98;98660.38;4885963;29;20036;-47
2021/11/28 08:17:42;;;;;;;53.90;29.80;;;;;;;10.46;69.49;98660.72;4882926;29;20108;-49
2021/11/28 08:20:07;;;;;;;57.33;30.35;;;;;;;10.42;69.40;98659.56;4877486;29;20033;-47
2021/11/28 08:22:33;;;;;;;85.15;45.67;;;;;;;10.43;70.33;98656.66;4884583;29;20445;-53
2021/11/28 08:24:58;;;;;;;66.30;34.60;;;;;;;10.52;69.44;98647.31;4883192;29;20039;-50
2021/11/28 08:27:24;;;;;;;63.03;32.20;;;;;;;10.36;70.00;98642.69;4883448;29;20036;-48
2021/11/28 08:29:50;;;;;;;60.78;33.40;;;;;;;10.53;70.25;98632.97;4885242;29;20119;-49
2021/11/28 08:32:16;;;;;;;65.30;34.50;;;;;;;10.74;68.64;98644.09;4888045;29;20504;-48
2021/11/28 08:34:41;;;;;;;61.00;32.90;;;;;;;10.84;67.57;98639.00;4883846;29;20028;-50
2021/11/28 08:37:07;;;;;;;65.20;33.20;;;;;;;10.45;68.64;98648.44;4885010;29;20059;-48
2021/11/28 08:39:32;;;;;;;59.00;31.92;;;;;;;10.73;68.52;98667.22;4875161;29;20216;-49
2021/11/28 08:41:58;;;;;;;58.10;31.35;;;;;;;10.98;69.12;98670.69;4886435;29;20024;-47
2021/11/28 08:44:23;;;;;;;66.43;29.73;;;;;;;11.67;81.28;98674.31;4893808;29;20037;-50
2021/11/28 08:46:50;;;;;;;54.92;30.13;;;;;;;11.88;64.19;98667.50;4893692;29;20158;-49
2021/11/28 08:49:17;;;;;;;56.92;30.42;;;;;;;11.28;67.14;98665.25;4861324;29;20029;-39
2021/11/28 08:51:42;;;;;;;61.72;31.90;;;;;;;11.24;66.01;98674.75;4893847;29;20412;-39
2021/11/28 08:54:13;;;;;;;59.70;31.70;;;;;;;10.91;67.98;98676.97;4893965;29;20035;-39
2021/11/28 08:56:39;;;;;;;65.95;34.00;;;;;;;10.93;67.84;98674.88;4893773;29;20115;-38
2021/11/28 08:59:04;;;;;;;62.38;33.85;;;;;;;11.10;67.97;98669.66;4894012;29;20029;-38
2021/11/28 09:01:30;;;;;;;74.53;37.55;;;;;;;10.87;68.45;98654.53;4895790;29;20493;-38
2021/11/28 09:03:55;;;;;;;78.07;39.28;;;;;;;11.03;68.43;98646.88;4897408;29;20024;-37
2021/11/28 09:06:21;;;;;;;80.35;40.88;;;;;;;11.01;68.06;98651.63;4897561;29;20043;-38
2021/11/28 09:08:46;;;;;;;75.35;39.10;;;;;;;10.89;68.82;98640.94;4897473;29;20032;-38
2021/11/28 09:11:12;;;;;;;69.30;36.22;;;;;;;11.10;68.46;98639.53;4897325;29;20032;-38
2021/11/28 09:13:37;;;;;;;65.35;32.35;;;;;;;11.05;68.89;98642.91;4896741;29;20021;-37
2021/11/28 09:16:03;;;;;;;62.03;31.25;;;;;;;10.97;69.51;98640.63;4896854;29;20494;-38
2021/11/28 09:18:35;;;;;;;58.40;31.33;;;;;;;11.08;68.80;98653.13;4896914;29;20024;-39
2021/11/28 09:21:01;;;;;;;60.25;31.27;;;;;;;11.14;69.13;98662.03;4897239;29;20047;-39
2021/11/28 09:26:11;;;;;;;59.40;29.70;;;;;;;11.29;69.76;98653.53;4897371;29;20476;-37
2021/11/28 09:28:37;;;;;;;61.45;30.25;;;;;;;11.18;72.48;98649.06;4897527;29;20032;-38
2021/11/28 09:31:04;;;;;;;55.28;29.33;;;;;;;11.30;69.81;98652.50;4897348;29;20043;-39
2021/11/28 09:33:30;;;;;;;61.47;29.30;;;;;;;11.51;68.50;98635.88;4896676;29;20126;-38
2021/11/28 09:35:55;;;;;;;56.42;28.75;;;;;;;11.45;68.40;98630.69;4896541;29;20037;-40
2021/11/28 09:38:20;;;;;;;57.88;29.48;;;;;;;11.34;69.55;98625.16;4888653;29;20037;-38
2021/11/28 09:40:46;;;;;;;54.00;29.48;;;;;;;11.88;67.93;98629.34;4883691;29;20031;-39
2021/11/28 09:43:12;;;;;;;57.22;30.40;;;;;;;11.89;67.72;98629.16;4883177;29;20033;-39
2021/11/28 09:45:38;;;;;;;54.83;30.02;;;;;;;12.02;67.85;98616.59;4878393;29;20025;-37
2021/11/28 09:48:04;;;;;;;60.45;30.92;;;;;;;12.25;66.82;98624.44;4876460;29;20466;-37
2021/11/28 09:50:29;;;;;;;58.33;29.92;;;;;;;12.21;67.90;98611.84;4876447;29;20055;-38
2021/11/28 09:52:55;;;;;;;53.28;29.42;;;;;;;12.16;67.71;98617.09;4888066;29;20490;-41
2021/11/28 09:55:20;;;;;;;56.28;28.95;;;;;;;12.37;66.56;98616.38;4885417;29;20039;-38
2021/11/28 09:57:46;;;;;;;57.63;29.52;;;;;;;12.52;66.51;98602.47;4884833;29;20378;-38
2021/11/28 10:00:13;;;;;;;63.72;30.92;;;;;;;12.56;66.54;98608.91;4886767;29;20568;-39
2021/11/28 10:02:38;;;;;;;51.50;28.75;;;;;;;12.55;67.00;98620.66;4891161;29;20465;-39
2021/11/28 10:05:09;;;;;;;53.83;28.50;;;;;;;12.70;66.42;98625.44;4895418;29;20028;-39
2021/11/28 10:07:34;;;;;;;59.65;31.15;;;;;;;12.66;67.33;98630.44;4889439;29;20500;-51
2021/11/28 10:10:00;;;;;;;52.28;29.60;;;;;;;12.94;65.64;98617.22;4886214;29;20025;-48
2021/11/28 10:12:29;;;;;;;49.35;27.10;;;;;;;12.85;64.79;98606.13;4884192;29;20060;-48
2021/11/28 10:14:56;;;;;;;55.42;28.02;;;;;;;12.82;65.11;98586.09;4890831;29;20047;-50
2021/11/28 10:17:28;;;;;;;48.67;28.35;;;;;;;13.17;64.13;98602.81;4894631;29;20029;-49
2021/11/28 10:19:54;;;;;;;51.53;27.52;;;;;;;12.91;64.59;98583.81;4895034;29;20513;-50
2021/11/28 10:22:19;;;;;;;63.05;33.08;;;;;;;12.83;64.62;98578.88;4895051;29;20088;-47
2021/11/28 10:25:18;;;;;;;62.40;36.13;;;;;;;12.70;64.75;98572.03;4895352;29;20032;-48
2021/11/28 10:27:52;;;;;;;68.80;38.63;;;;;;;12.90;64.27;98566.16;4895569;29;20029;-48
2021/11/28 10:30:40;;;;;;;73.20;39.67;;;;;;;12.67;64.38;98564.53;4895326;29;20107;-50
2021/11/28 10:33:07;;;;;;;57.00;32.92;;;;;;;12.79;64.38;98586.56;4895365;29;20065;-53
2021/11/28 10:35:32;;;;;;;60.58;34.15;;;;;;;12.64;65.39;98578.34;4895057;29;20071;-50
2021/11/28 10:37:58;;;;;;;60.47;34.28;;;;;;;12.49;66.28;98587.75;4895207;29;20146;-49
2021/11/28 10:40:25;;;;;;;57.25;30.73;;;;;;;12.35;66.75;98578.44;4878564;29;20335;-52
2021/11/28 10:43:26;;;;;;;54.88;31.15;;;;;;;12.51;67.10;98564.31;4894685;29;20453;-49
2021/11/28 10:45:52;;;;;;;61.28;33.10;;;;;;;12.64;66.42;98559.66;4873726;29;20041;-51
2021/11/28 10:48:26;;;;;;;50.17;29.15;;;;;;;12.46;66.84;98547.41;4890725;29;20445;-50
2021/11/28 10:50:52;;;;;;;50.13;28.00;;;;;;;12.06;67.52;98551.06;4894769;29;20040;-50
2021/11/28 10:53:22;;;;;;;48.88;27.02;;;;;;;12.26;67.97;98545.22;4894971;29;20037;-49
2021/11/28 10:55:59;;;;;;;47.42;24.55;;;;;;;12.43;66.60;98542.56;4894858;29;20116;-47
2021/11/28 10:58:31;;;;;;;44.88;26.23;;;;;;;12.06;68.66;98549.19;4894709;29;20477;-49
2021/11/28 11:00:56;;;;;;;52.47;27.08;;;;;;;12.23;68.43;98541.19;4894690;29;20095;-38
2021/11/28 11:03:37;;;;;;;49.08;25.98;;;;;;;12.50;67.00;98519.19;4894371;29;20115;-38
2021/11/28 11:06:13;;;;;;;48.47;27.20;;;;;;;12.48;66.63;98532.75;4894431;29;20350;-38
2021/11/28 11:08:38;;;;;;;46.22;26.75;;;;;;;12.55;67.08;98545.94;4894480;29;20041;-39
2021/11/28 11:11:08;;;;;;;43.47;25.40;;;;;;;12.75;66.00;98548.06;4878167;29;20033;-39
2021/11/28 11:13:52;;;;;;;42.58;24.98;;;;;;;12.93;65.79;98551.50;4877728;29;20589;-38
2021/11/28 11:16:41;;;;;;;44.90;26.63;;;;;;;13.22;64.76;98547.59;4894587;29;20111;-38
2021/11/28 11:19:30;;;;;;;41.42;24.65;;;;;;;13.02;65.15;98558.03;4894936;29;20128;-39
2021/11/28 11:22:26;;;;;;;47.28;26.48;;;;;;;13.04;65.69;98561.25;4894628;29;20124;-39
2021/11/28 11:25:15;;;;;;;41.17;23.92;;;;;;;12.85;66.16;98563.41;4893344;29;20439;-38
2021/11/28 11:27:41;;;;;;;44.38;23.75;;;;;;;12.80;66.71;98550.81;4894347;29;20040;-38